createdAt,value
2023-04-16T00:07:15.938Z,99
2023-04-16T00:17:16.421Z,99
2023-04-16T00:27:16.831Z,99
2023-04-16T00:47:17.983Z,99
2023-04-16T00:57:18.504Z,99
2023-04-16T01:07:19.055Z,100
2023-04-16T01:17:19.950Z,100
2023-04-16T01:27:20.272Z,100
2023-04-16T01:37:20.931Z,100
2023-04-16T01:47:21.774Z,100
2023-04-16T01:57:22.321Z,100
2023-04-16T02:07:22.900Z,99
2023-04-16T02:17:23.669Z,99
2023-04-16T02:27:24.348Z,99
2023-04-16T02:37:24.529Z,99
2023-04-16T02:47:25.441Z,99
2023-04-16T02:57:26.024Z,99
2023-04-16T03:07:26.113Z,99
2023-04-16T03:17:26.333Z,99
2023-04-16T03:27:27.179Z,99
2023-04-16T03:37:27.635Z,99
2023-04-16T03:47:28.393Z,99
2023-04-16T03:57:28.800Z,99
2023-04-16T04:07:28.984Z,99
2023-04-16T04:17:29.376Z,99
2023-04-16T04:27:30.141Z,99
2023-04-16T04:37:31.030Z,99
2023-04-16T04:47:31.458Z,99
2023-04-16T04:57:32.371Z,99
2023-04-16T05:07:32.727Z,99
2023-04-16T05:17:33.612Z,99
2023-04-16T05:27:34.558Z,98
2023-04-16T05:37:34.847Z,98
2023-04-16T05:57:36.086Z,98
2023-04-16T06:07:36.452Z,98
2023-04-16T06:27:37.551Z,98
2023-04-16T06:37:37.877Z,98
2023-04-16T07:07:38.831Z,98
2023-04-16T07:17:39.795Z,98
2023-04-16T07:27:40.450Z,98
2023-04-16T07:37:40.595Z,98
2023-04-16T07:47:41.067Z,97
2023-04-16T07:57:41.589Z,97
2023-04-16T08:07:41.827Z,97
2023-04-16T08:17:42.098Z,97
2023-04-16T08:27:42.406Z,97
2023-04-16T08:37:43.302Z,97
2023-04-16T08:47:43.956Z,97
2023-04-16T08:57:44.170Z,97
2023-04-16T09:07:45.120Z,96
2023-04-16T09:17:45.974Z,96
2023-04-16T09:27:46.761Z,96
2023-04-16T09:37:47.133Z,95
2023-04-16T09:47:47.469Z,94
2023-04-16T09:57:47.581Z,94
2023-04-16T10:07:48.657Z,93
2023-04-16T10:17:49.555Z,93
2023-04-16T10:27:50.280Z,93
2023-04-16T10:37:51.194Z,92
2023-04-16T10:47:52.022Z,92
2023-04-16T10:57:52.624Z,91
2023-04-16T11:07:52.819Z,88
2023-04-16T11:17:53.091Z,87
2023-04-16T11:27:53.665Z,86
2023-04-16T11:37:54.594Z,83
2023-04-16T11:47:54.909Z,84
2023-04-16T12:07:56.199Z,85
2023-04-16T12:17:56.628Z,85
2023-04-16T12:37:58.333Z,85
2023-04-16T12:47:58.680Z,84
2023-04-16T12:57:58.874Z,83
2023-04-16T13:07:59.333Z,82
2023-04-16T13:17:59.942Z,83
2023-04-16T13:48:00.451Z,83
2023-04-16T13:58:01.141Z,84
2023-04-16T14:08:01.560Z,83
2023-04-16T14:18:02.144Z,83
2023-04-16T14:28:03.076Z,84
2023-04-16T14:38:03.348Z,84
2023-04-16T14:48:03.523Z,83
2023-04-16T14:58:03.681Z,83
2023-04-16T15:08:04.351Z,82
2023-04-16T15:18:05.104Z,82
2023-04-16T15:28:05.968Z,80
2023-04-16T15:38:06.214Z,79
2023-04-16T15:48:06.412Z,80
2023-04-16T15:58:06.672Z,79
2023-04-16T16:08:06.813Z,79
2023-04-16T16:18:06.979Z,80
2023-04-16T16:28:07.451Z,81
2023-04-16T16:38:08.398Z,82
2023-04-16T16:48:09.310Z,82
2023-04-16T17:28:11.573Z,91
2023-04-16T17:38:12.587Z,92
2023-04-16T17:48:13.057Z,94
2023-04-16T17:58:14.043Z,94
2023-04-16T18:08:14.287Z,94
2023-04-16T18:18:15.214Z,94
2023-04-16T18:28:15.944Z,94
2023-04-16T18:38:16.676Z,94
2023-04-16T18:48:16.841Z,94
2023-04-16T18:58:17.236Z,95
2023-04-16T19:08:17.497Z,95
2023-04-16T19:18:17.656Z,96
2023-04-16T19:28:17.960Z,96
2023-04-16T19:38:18.349Z,96
2023-04-16T19:48:18.619Z,96
2023-04-16T19:58:18.852Z,96
2023-04-16T20:08:19.170Z,97
2023-04-16T20:18:19.473Z,97
2023-04-16T20:28:20.416Z,97
2023-04-16T20:38:21.048Z,97
2023-04-16T20:48:21.420Z,97
2023-04-16T20:58:22.175Z,98
2023-04-16T21:08:22.442Z,98
2023-04-16T21:18:23.335Z,98
2023-04-16T21:28:23.695Z,98
2023-04-16T21:38:24.236Z,98
2023-04-16T21:48:24.709Z,98
2023-04-16T21:58:25.272Z,98
2023-04-16T22:08:25.412Z,98
2023-04-16T22:18:25.957Z,98
2023-04-16T22:28:26.228Z,98
2023-04-16T22:38:27.017Z,98
2023-04-16T22:48:27.968Z,98
2023-04-16T22:58:28.251Z,98
2023-04-16T23:08:28.804Z,98
2023-04-16T23:18:29.560Z,98
2023-04-16T23:38:31.681Z,98
2023-04-16T23:48:32.541Z,98
2023-04-16T23:58:32.848Z,98
